sensor_id;sensor_type;location;lat;lon;timestamp;temperature;humidity
24164;DHT22;12319;49.204;8.116;2023-09-08T00:00:42;21.10;72.00
24164;DHT22;12319;49.204;8.116;2023-09-08T00:03:07;21.00;72.10
24164;DHT22;12319;49.204;8.116;2023-09-08T00:05:33;21.00;72.30
24164;DHT22;12319;49.204;8.116;2023-09-08T00:07:58;21.00;72.50
24164;DHT22;12319;49.204;8.116;2023-09-08T00:10:24;20.80;72.70
24164;DHT22;12319;49.204;8.116;2023-09-08T00:12:50;20.80;73.30
24164;DHT22;12319;49.204;8.116;2023-09-08T00:15:15;20.80;73.30
24164;DHT22;12319;49.204;8.116;2023-09-08T00:17:41;20.70;73.40
24164;DHT22;12319;49.204;8.116;2023-09-08T00:20:07;20.60;73.40
24164;DHT22;12319;49.204;8.116;2023-09-08T00:22:37;20.60;73.70
24164;DHT22;12319;49.204;8.116;2023-09-08T00:25:02;20.60;73.80
24164;DHT22;12319;49.204;8.116;2023-09-08T00:27:29;20.50;74.00
24164;DHT22;12319;49.204;8.116;2023-09-08T00:29:55;20.50;74.40
24164;DHT22;12319;49.204;8.116;2023-09-08T00:32:21;20.50;74.40
24164;DHT22;12319;49.204;8.116;2023-09-08T00:34:46;20.30;74.40
24164;DHT22;12319;49.204;8.116;2023-09-08T00:37:12;20.30;74.60
24164;DHT22;12319;49.204;8.116;2023-09-08T00:39:38;20.20;74.70
24164;DHT22;12319;49.204;8.116;2023-09-08T00:42:04;20.20;74.90
24164;DHT22;12319;49.204;8.116;2023-09-08T00:44:30;20.20;75.00
24164;DHT22;12319;49.204;8.116;2023-09-08T00:46:55;20.10;75.10
24164;DHT22;12319;49.204;8.116;2023-09-08T00:49:21;20.00;75.30
24164;DHT22;12319;49.204;8.116;2023-09-08T00:51:47;20.00;75.50
24164;DHT22;12319;49.204;8.116;2023-09-08T00:54:14;19.90;75.60
24164;DHT22;12319;49.204;8.116;2023-09-08T00:56:40;19.90;75.80
24164;DHT22;12319;49.204;8.116;2023-09-08T00:59:07;19.90;75.90
24164;DHT22;12319;49.204;8.116;2023-09-08T01:01:33;19.80;76.00
24164;DHT22;12319;49.204;8.116;2023-09-08T01:04:00;19.80;76.00
24164;DHT22;12319;49.204;8.116;2023-09-08T01:06:27;19.80;76.20
24164;DHT22;12319;49.204;8.116;2023-09-08T01:08:53;19.70;76.20
24164;DHT22;12319;49.204;8.116;2023-09-08T01:11:20;19.70;76.40
24164;DHT22;12319;49.204;8.116;2023-09-08T01:13:47;19.70;76.50
24164;DHT22;12319;49.204;8.116;2023-09-08T01:16:12;19.70;76.50
24164;DHT22;12319;49.204;8.116;2023-09-08T01:18:38;19.60;76.60
24164;DHT22;12319;49.204;8.116;2023-09-08T01:24:05;19.60;76.80
24164;DHT22;12319;49.204;8.116;2023-09-08T01:26:40;19.60;77.30
24164;DHT22;12319;49.204;8.116;2023-09-08T01:29:07;19.60;77.10
24164;DHT22;12319;49.204;8.116;2023-09-08T01:31:33;19.50;77.00
24164;DHT22;12319;49.204;8.116;2023-09-08T01:34:01;19.50;77.20
24164;DHT22;12319;49.204;8.116;2023-09-08T01:36:29;19.50;77.40
24164;DHT22;12319;49.204;8.116;2023-09-08T01:38:55;19.50;77.40
24164;DHT22;12319;49.204;8.116;2023-09-08T01:41:20;19.40;77.40
24164;DHT22;12319;49.204;8.116;2023-09-08T01:43:46;19.40;77.50
24164;DHT22;12319;49.204;8.116;2023-09-08T01:46:12;19.40;77.70
24164;DHT22;12319;49.204;8.116;2023-09-08T01:48:38;19.40;77.80
24164;DHT22;12319;49.204;8.116;2023-09-08T01:51:03;19.30;77.70
24164;DHT22;12319;49.204;8.116;2023-09-08T01:53:29;19.30;77.80
24164;DHT22;12319;49.204;8.116;2023-09-08T01:55:54;19.30;77.80
24164;DHT22;12319;49.204;8.116;2023-09-08T01:58:20;19.30;77.90
24164;DHT22;12319;49.204;8.116;2023-09-08T02:00:51;19.20;77.60
24164;DHT22;12319;49.204;8.116;2023-09-08T02:03:17;19.20;77.70
24164;DHT22;12319;49.204;8.116;2023-09-08T02:05:43;19.20;77.40
24164;DHT22;12319;49.204;8.116;2023-09-08T02:08:09;19.30;77.40
24164;DHT22;12319;49.204;8.116;2023-09-08T02:10:35;19.20;77.20
24164;DHT22;12319;49.204;8.116;2023-09-08T02:13:00;19.30;77.00
24164;DHT22;12319;49.204;8.116;2023-09-08T02:15:26;19.30;76.90
24164;DHT22;12319;49.204;8.116;2023-09-08T02:17:55;19.20;76.70
24164;DHT22;12319;49.204;8.116;2023-09-08T02:20:21;19.30;76.90
24164;DHT22;12319;49.204;8.116;2023-09-08T02:22:46;19.30;76.70
24164;DHT22;12319;49.204;8.116;2023-09-08T02:25:15;19.30;76.80
24164;DHT22;12319;49.204;8.116;2023-09-08T02:27:41;19.30;76.60
24164;DHT22;12319;49.204;8.116;2023-09-08T02:30:06;19.30;76.70
24164;DHT22;12319;49.204;8.116;2023-09-08T02:32:32;19.30;76.60
24164;DHT22;12319;49.204;8.116;2023-09-08T02:34:58;19.30;76.50
24164;DHT22;12319;49.204;8.116;2023-09-08T02:37:23;19.30;76.50
24164;DHT22;12319;49.204;8.116;2023-09-08T02:39:49;19.30;76.50
24164;DHT22;12319;49.204;8.116;2023-09-08T02:42:14;19.30;76.50
24164;DHT22;12319;49.204;8.116;2023-09-08T02:44:40;19.30;76.50
24164;DHT22;12319;49.204;8.116;2023-09-08T02:47:05;19.30;76.50
24164;DHT22;12319;49.204;8.116;2023-09-08T02:49:31;19.20;76.40
24164;DHT22;12319;49.204;8.116;2023-09-08T02:51:57;19.20;76.40
24164;DHT22;12319;49.204;8.116;2023-09-08T02:54:23;19.20;76.40
24164;DHT22;12319;49.204;8.116;2023-09-08T02:56:48;19.20;76.40
24164;DHT22;12319;49.204;8.116;2023-09-08T02:59:14;19.20;76.40
24164;DHT22;12319;49.204;8.116;2023-09-08T03:01:39;19.30;76.50
24164;DHT22;12319;49.204;8.116;2023-09-08T03:04:05;19.20;76.40
24164;DHT22;12319;49.204;8.116;2023-09-08T03:06:31;19.20;76.40
24164;DHT22;12319;49.204;8.116;2023-09-08T03:08:58;19.30;76.50
24164;DHT22;12319;49.204;8.116;2023-09-08T03:11:24;19.20;76.40
24164;DHT22;12319;49.204;8.116;2023-09-08T03:13:49;19.20;76.40
24164;DHT22;12319;49.204;8.116;2023-09-08T03:16:15;19.20;76.40
24164;DHT22;12319;49.204;8.116;2023-09-08T03:18:41;19.20;76.40
24164;DHT22;12319;49.204;8.116;2023-09-08T03:21:06;19.20;76.40
24164;DHT22;12319;49.204;8.116;2023-09-08T03:23:40;19.30;76.50
24164;DHT22;12319;49.204;8.116;2023-09-08T03:26:06;19.10;76.40
24164;DHT22;12319;49.204;8.116;2023-09-08T03:28:33;19.20;76.40
24164;DHT22;12319;49.204;8.116;2023-09-08T03:30:59;19.20;76.40
24164;DHT22;12319;49.204;8.116;2023-09-08T03:33:24;19.10;76.40
24164;DHT22;12319;49.204;8.116;2023-09-08T03:35:50;19.20;76.40
24164;DHT22;12319;49.204;8.116;2023-09-08T03:38:15;19.10;76.40
24164;DHT22;12319;49.204;8.116;2023-09-08T03:40:41;19.20;76.50
24164;DHT22;12319;49.204;8.116;2023-09-08T03:43:07;19.10;76.40
24164;DHT22;12319;49.204;8.116;2023-09-08T03:45:33;19.10;76.50
24164;DHT22;12319;49.204;8.116;2023-09-08T03:47:58;19.10;76.50
24164;DHT22;12319;49.204;8.116;2023-09-08T03:50:24;19.00;76.60
24164;DHT22;12319;49.204;8.116;2023-09-08T03:52:50;19.00;76.70
24164;DHT22;12319;49.204;8.116;2023-09-08T03:55:16;19.00;76.90
24164;DHT22;12319;49.204;8.116;2023-09-08T03:57:42;19.00;77.00
24164;DHT22;12319;49.204;8.116;2023-09-08T04:00:08;18.90;76.80
24164;DHT22;12319;49.204;8.116;2023-09-08T04:02:36;18.90;76.90
24164;DHT22;12319;49.204;8.116;2023-09-08T04:05:01;18.90;77.40
24164;DHT22;12319;49.204;8.116;2023-09-08T04:07:27;18.90;77.40
24164;DHT22;12319;49.204;8.116;2023-09-08T04:09:52;18.80;77.20
24164;DHT22;12319;49.204;8.116;2023-09-08T04:12:18;18.70;77.10
24164;DHT22;12319;49.204;8.116;2023-09-08T04:14:43;18.80;77.30
24164;DHT22;12319;49.204;8.116;2023-09-08T04:17:09;18.80;77.40
24164;DHT22;12319;49.204;8.116;2023-09-08T04:19:34;18.80;77.50
24164;DHT22;12319;49.204;8.116;2023-09-08T04:22:00;18.80;77.80
24164;DHT22;12319;49.204;8.116;2023-09-08T04:24:25;18.80;77.70
24164;DHT22;12319;49.204;8.116;2023-09-08T04:26:51;18.80;77.60
24164;DHT22;12319;49.204;8.116;2023-09-08T04:29:17;18.70;77.50
24164;DHT22;12319;49.204;8.116;2023-09-08T04:31:42;18.70;77.60
24164;DHT22;12319;49.204;8.116;2023-09-08T04:34:08;18.70;77.60
24164;DHT22;12319;49.204;8.116;2023-09-08T04:36:33;18.80;77.80
24164;DHT22;12319;49.204;8.116;2023-09-08T04:38:59;18.60;77.60
24164;DHT22;12319;49.204;8.116;2023-09-08T04:41:24;18.80;77.80
24164;DHT22;12319;49.204;8.116;2023-09-08T04:43:50;18.80;77.80
24164;DHT22;12319;49.204;8.116;2023-09-08T04:46:15;18.80;77.80
24164;DHT22;12319;49.204;8.116;2023-09-08T04:48:41;18.70;77.80
24164;DHT22;12319;49.204;8.116;2023-09-08T04:51:07;18.80;77.80
24164;DHT22;12319;49.204;8.116;2023-09-08T04:53:33;18.80;77.90
24164;DHT22;12319;49.204;8.116;2023-09-08T04:55:58;18.80;77.90
24164;DHT22;12319;49.204;8.116;2023-09-08T04:58:24;18.80;77.90
24164;DHT22;12319;49.204;8.116;2023-09-08T05:00:51;18.80;77.90
24164;DHT22;12319;49.204;8.116;2023-09-08T05:03:16;18.80;77.70
24164;DHT22;12319;49.204;8.116;2023-09-08T05:05:42;18.80;77.80
24164;DHT22;12319;49.204;8.116;2023-09-08T05:08:07;18.90;77.90
24164;DHT22;12319;49.204;8.116;2023-09-08T05:10:33;18.90;77.90
24164;DHT22;12319;49.204;8.116;2023-09-08T05:12:58;18.90;77.80
24164;DHT22;12319;49.204;8.116;2023-09-08T05:15:24;18.90;77.90
24164;DHT22;12319;49.204;8.116;2023-09-08T05:17:51;18.90;77.90
24164;DHT22;12319;49.204;8.116;2023-09-08T05:20:16;18.90;78.00
24164;DHT22;12319;49.204;8.116;2023-09-08T05:22:42;19.00;78.10
24164;DHT22;12319;49.204;8.116;2023-09-08T05:25:08;19.00;78.20
24164;DHT22;12319;49.204;8.116;2023-09-08T05:27:33;19.00;78.40
24164;DHT22;12319;49.204;8.116;2023-09-08T05:29:59;19.00;78.50
24164;DHT22;12319;49.204;8.116;2023-09-08T05:32:24;19.10;78.60
24164;DHT22;12319;49.204;8.116;2023-09-08T05:34:50;19.10;78.60
24164;DHT22;12319;49.204;8.116;2023-09-08T05:37:15;19.10;78.60
24164;DHT22;12319;49.204;8.116;2023-09-08T05:39:41;19.20;78.70
24164;DHT22;12319;49.204;8.116;2023-09-08T05:42:07;19.20;78.60
24164;DHT22;12319;49.204;8.116;2023-09-08T05:44:32;19.20;78.70
24164;DHT22;12319;49.204;8.116;2023-09-08T05:46:58;19.30;78.70
24164;DHT22;12319;49.204;8.116;2023-09-08T05:49:23;19.30;78.70
24164;DHT22;12319;49.204;8.116;2023-09-08T05:51:49;19.30;78.70
24164;DHT22;12319;49.204;8.116;2023-09-08T05:54:15;19.40;78.80
24164;DHT22;12319;49.204;8.116;2023-09-08T05:56:40;19.40;78.80
24164;DHT22;12319;49.204;8.116;2023-09-08T05:59:06;19.50;79.00
24164;DHT22;12319;49.204;8.116;2023-09-08T06:01:31;19.50;78.90
24164;DHT22;12319;49.204;8.116;2023-09-08T06:03:58;19.60;79.00
24164;DHT22;12319;49.204;8.116;2023-09-08T06:06:23;19.70;79.10
24164;DHT22;12319;49.204;8.116;2023-09-08T06:08:50;19.60;79.10
24164;DHT22;12319;49.204;8.116;2023-09-08T06:11:16;19.80;79.20
24164;DHT22;12319;49.204;8.116;2023-09-08T06:13:41;19.80;79.20
24164;DHT22;12319;49.204;8.116;2023-09-08T06:16:07;19.90;79.20
24164;DHT22;12319;49.204;8.116;2023-09-08T06:18:33;19.90;79.20
24164;DHT22;12319;49.204;8.116;2023-09-08T06:21:08;20.00;79.10
24164;DHT22;12319;49.204;8.116;2023-09-08T06:23:34;20.00;79.10
24164;DHT22;12319;49.204;8.116;2023-09-08T06:26:00;20.10;79.10
24164;DHT22;12319;49.204;8.116;2023-09-08T06:28:29;20.20;79.10
24164;DHT22;12319;49.204;8.116;2023-09-08T06:30:55;20.20;79.00
24164;DHT22;12319;49.204;8.116;2023-09-08T06:33:21;20.30;79.10
24164;DHT22;12319;49.204;8.116;2023-09-08T06:35:48;20.40;79.10
24164;DHT22;12319;49.204;8.116;2023-09-08T06:38:13;20.40;78.90
24164;DHT22;12319;49.204;8.116;2023-09-08T06:40:39;20.50;78.90
24164;DHT22;12319;49.204;8.116;2023-09-08T06:43:05;20.60;78.60
24164;DHT22;12319;49.204;8.116;2023-09-08T06:45:30;20.70;78.30
24164;DHT22;12319;49.204;8.116;2023-09-08T06:47:56;20.90;78.00
24164;DHT22;12319;49.204;8.116;2023-09-08T06:50:23;21.00;77.50
24164;DHT22;12319;49.204;8.116;2023-09-08T06:52:55;21.30;77.40
24164;DHT22;12319;49.204;8.116;2023-09-08T06:55:26;21.40;77.40
24164;DHT22;12319;49.204;8.116;2023-09-08T06:58:03;21.60;76.80
24164;DHT22;12319;49.204;8.116;2023-09-08T07:00:28;21.80;76.50
24164;DHT22;12319;49.204;8.116;2023-09-08T07:02:54;22.00;76.50
24164;DHT22;12319;49.204;8.116;2023-09-08T07:05:23;22.50;77.10
24164;DHT22;12319;49.204;8.116;2023-09-08T07:07:49;23.80;78.10
24164;DHT22;12319;49.204;8.116;2023-09-08T07:10:15;26.00;76.70
24164;DHT22;12319;49.204;8.116;2023-09-08T07:12:41;28.50;72.10
24164;DHT22;12319;49.204;8.116;2023-09-08T07:15:07;30.80;66.00
24164;DHT22;12319;49.204;8.116;2023-09-08T07:17:33;32.80;60.30
24164;DHT22;12319;49.204;8.116;2023-09-08T07:19:59;34.50;57.60
24164;DHT22;12319;49.204;8.116;2023-09-08T07:22:25;35.90;52.50
24164;DHT22;12319;49.204;8.116;2023-09-08T07:24:50;36.90;53.30
24164;DHT22;12319;49.204;8.116;2023-09-08T07:27:16;38.00;51.90
24164;DHT22;12319;49.204;8.116;2023-09-08T07:29:41;38.70;50.40
24164;DHT22;12319;49.204;8.116;2023-09-08T07:32:08;39.40;49.00
24164;DHT22;12319;49.204;8.116;2023-09-08T07:34:33;40.10;48.10
24164;DHT22;12319;49.204;8.116;2023-09-08T07:37:00;40.60;47.00
24164;DHT22;12319;49.204;8.116;2023-09-08T07:39:26;41.20;46.30
24164;DHT22;12319;49.204;8.116;2023-09-08T07:41:51;41.70;45.60
24164;DHT22;12319;49.204;8.116;2023-09-08T07:44:18;42.40;44.80
24164;DHT22;12319;49.204;8.116;2023-09-08T07:46:44;42.90;43.80
24164;DHT22;12319;49.204;8.116;2023-09-08T07:49:11;43.20;43.00
24164;DHT22;12319;49.204;8.116;2023-09-08T07:51:36;43.60;41.90
24164;DHT22;12319;49.204;8.116;2023-09-08T07:54:02;44.00;41.40
24164;DHT22;12319;49.204;8.116;2023-09-08T07:56:29;44.50;40.60
24164;DHT22;12319;49.204;8.116;2023-09-08T07:58:55;44.80;39.50
24164;DHT22;12319;49.204;8.116;2023-09-08T08:01:20;44.90;39.80
24164;DHT22;12319;49.204;8.116;2023-09-08T08:03:46;45.30;39.10
24164;DHT22;12319;49.204;8.116;2023-09-08T08:06:11;45.50;38.10
24164;DHT22;12319;49.204;8.116;2023-09-08T08:08:37;45.50;37.70
24164;DHT22;12319;49.204;8.116;2023-09-08T08:11:12;45.60;37.60
24164;DHT22;12319;49.204;8.116;2023-09-08T08:13:38;45.60;36.50
24164;DHT22;12319;49.204;8.116;2023-09-08T08:16:03;45.60;37.30
24164;DHT22;12319;49.204;8.116;2023-09-08T08:18:29;45.80;37.00
24164;DHT22;12319;49.204;8.116;2023-09-08T08:20:54;45.90;36.60
24164;DHT22;12319;49.204;8.116;2023-09-08T08:23:20;46.00;35.00
24164;DHT22;12319;49.204;8.116;2023-09-08T08:25:45;46.20;36.10
24164;DHT22;12319;49.204;8.116;2023-09-08T08:28:11;46.40;35.30
24164;DHT22;12319;49.204;8.116;2023-09-08T08:30:37;46.50;35.30
24164;DHT22;12319;49.204;8.116;2023-09-08T08:33:02;46.60;34.90
24164;DHT22;12319;49.204;8.116;2023-09-08T08:35:29;46.60;34.40
24164;DHT22;12319;49.204;8.116;2023-09-08T08:37:57;46.60;34.20
24164;DHT22;12319;49.204;8.116;2023-09-08T08:40:23;46.60;33.90
24164;DHT22;12319;49.204;8.116;2023-09-08T08:42:57;46.70;34.00
24164;DHT22;12319;49.204;8.116;2023-09-08T08:45:24;46.60;33.80
24164;DHT22;12319;49.204;8.116;2023-09-08T08:47:53;46.80;34.00
24164;DHT22;12319;49.204;8.116;2023-09-08T08:50:19;46.80;33.30
24164;DHT22;12319;49.204;8.116;2023-09-08T08:52:45;46.70;32.90
24164;DHT22;12319;49.204;8.116;2023-09-08T08:55:11;46.40;32.40
24164;DHT22;12319;49.204;8.116;2023-09-08T08:57:40;46.00;32.60
24164;DHT22;12319;49.204;8.116;2023-09-08T09:00:11;45.60;32.10
24164;DHT22;12319;49.204;8.116;2023-09-08T09:02:41;45.30;32.00
24164;DHT22;12319;49.204;8.116;2023-09-08T09:05:09;45.00;32.00
24164;DHT22;12319;49.204;8.116;2023-09-08T09:07:36;44.50;32.50
24164;DHT22;12319;49.204;8.116;2023-09-08T09:10:03;44.00;32.50
24164;DHT22;12319;49.204;8.116;2023-09-08T09:12:29;43.60;32.40
24164;DHT22;12319;49.204;8.116;2023-09-08T09:14:55;42.80;32.60
24164;DHT22;12319;49.204;8.116;2023-09-08T09:17:23;41.60;32.90
24164;DHT22;12319;49.204;8.116;2023-09-08T09:19:48;40.20;33.70
24164;DHT22;12319;49.204;8.116;2023-09-08T09:22:14;38.80;34.90
24164;DHT22;12319;49.204;8.116;2023-09-08T09:24:44;37.50;36.10
24164;DHT22;12319;49.204;8.116;2023-09-08T09:27:11;36.30;37.10
24164;DHT22;12319;49.204;8.116;2023-09-08T09:30:03;35.20;38.00
24164;DHT22;12319;49.204;8.116;2023-09-08T09:32:29;34.20;39.90
24164;DHT22;12319;49.204;8.116;2023-09-08T09:34:57;33.60;40.10
24164;DHT22;12319;49.204;8.116;2023-09-08T09:37:23;32.90;40.80
24164;DHT22;12319;49.204;8.116;2023-09-08T09:39:50;32.40;41.70
24164;DHT22;12319;49.204;8.116;2023-09-08T09:42:15;31.90;42.20
24164;DHT22;12319;49.204;8.116;2023-09-08T09:44:41;31.50;42.80
24164;DHT22;12319;49.204;8.116;2023-09-08T09:47:07;31.30;43.40
24164;DHT22;12319;49.204;8.116;2023-09-08T09:49:42;31.10;44.00
24164;DHT22;12319;49.204;8.116;2023-09-08T09:52:07;30.90;44.50
24164;DHT22;12319;49.204;8.116;2023-09-08T09:54:33;30.60;44.60
24164;DHT22;12319;49.204;8.116;2023-09-08T09:56:59;30.50;44.90
24164;DHT22;12319;49.204;8.116;2023-09-08T09:59:26;30.40;45.30
24164;DHT22;12319;49.204;8.116;2023-09-08T10:01:52;30.30;46.30
24164;DHT22;12319;49.204;8.116;2023-09-08T10:04:18;30.20;46.40
24164;DHT22;12319;49.204;8.116;2023-09-08T10:06:45;30.10;46.40
24164;DHT22;12319;49.204;8.116;2023-09-08T10:09:11;30.00;47.10
24164;DHT22;12319;49.204;8.116;2023-09-08T10:11:54;29.90;47.00
24164;DHT22;12319;49.204;8.116;2023-09-08T10:14:21;29.90;47.70
24164;DHT22;12319;49.204;8.116;2023-09-08T10:16:50;29.90;47.70
24164;DHT22;12319;49.204;8.116;2023-09-08T10:19:19;29.90;47.80
24164;DHT22;12319;49.204;8.116;2023-09-08T10:21:46;29.90;48.10
24164;DHT22;12319;49.204;8.116;2023-09-08T10:24:15;29.90;48.20
24164;DHT22;12319;49.204;8.116;2023-09-08T10:26:44;29.80;48.60
24164;DHT22;12319;49.204;8.116;2023-09-08T10:29:12;29.80;48.70
24164;DHT22;12319;49.204;8.116;2023-09-08T10:31:39;29.80;48.80
24164;DHT22;12319;49.204;8.116;2023-09-08T10:34:04;29.70;49.00
24164;DHT22;12319;49.204;8.116;2023-09-08T10:36:30;29.60;49.00
24164;DHT22;12319;49.204;8.116;2023-09-08T10:44:41;29.80;49.70
24164;DHT22;12319;49.204;8.116;2023-09-08T10:47:07;29.70;49.40
24164;DHT22;12319;49.204;8.116;2023-09-08T10:49:36;29.70;49.50
24164;DHT22;12319;49.204;8.116;2023-09-08T10:52:11;29.70;49.70
24164;DHT22;12319;49.204;8.116;2023-09-08T10:55:03;29.70;50.20
24164;DHT22;12319;49.204;8.116;2023-09-08T10:57:28;29.60;51.00
24164;DHT22;12319;49.204;8.116;2023-09-08T10:59:58;29.60;50.10
24164;DHT22;12319;49.204;8.116;2023-09-08T11:02:42;29.60;50.30
24164;DHT22;12319;49.204;8.116;2023-09-08T11:05:13;29.70;50.70
24164;DHT22;12319;49.204;8.116;2023-09-08T11:07:43;29.60;50.50
24164;DHT22;12319;49.204;8.116;2023-09-08T11:10:11;29.60;50.40
24164;DHT22;12319;49.204;8.116;2023-09-08T11:12:37;29.60;50.80
24164;DHT22;12319;49.204;8.116;2023-09-08T11:15:04;29.50;51.00
24164;DHT22;12319;49.204;8.116;2023-09-08T11:17:31;29.40;51.10
24164;DHT22;12319;49.204;8.116;2023-09-08T11:19:57;29.40;51.10
24164;DHT22;12319;49.204;8.116;2023-09-08T11:22:24;29.40;51.00
24164;DHT22;12319;49.204;8.116;2023-09-08T11:24:55;29.40;51.70
24164;DHT22;12319;49.204;8.116;2023-09-08T11:27:22;29.40;51.70
24164;DHT22;12319;49.204;8.116;2023-09-08T11:29:49;29.40;51.80
24164;DHT22;12319;49.204;8.116;2023-09-08T11:32:15;29.40;51.80
24164;DHT22;12319;49.204;8.116;2023-09-08T11:34:41;29.50;51.70
24164;DHT22;12319;49.204;8.116;2023-09-08T11:37:11;29.60;51.80
24164;DHT22;12319;49.204;8.116;2023-09-08T11:39:39;29.60;52.00
24164;DHT22;12319;49.204;8.116;2023-09-08T11:42:05;29.70;51.90
24164;DHT22;12319;49.204;8.116;2023-09-08T11:44:32;29.70;52.00
24164;DHT22;12319;49.204;8.116;2023-09-08T11:46:59;29.80;52.00
24164;DHT22;12319;49.204;8.116;2023-09-08T11:49:25;29.90;52.00
24164;DHT22;12319;49.204;8.116;2023-09-08T11:51:50;30.00;51.70
24164;DHT22;12319;49.204;8.116;2023-09-08T11:54:16;30.00;51.50
24164;DHT22;12319;49.204;8.116;2023-09-08T11:56:42;30.10;51.60
24164;DHT22;12319;49.204;8.116;2023-09-08T11:59:08;30.20;51.60
24164;DHT22;12319;49.204;8.116;2023-09-08T12:01:35;30.40;51.70
24164;DHT22;12319;49.204;8.116;2023-09-08T12:04:00;30.50;51.80
24164;DHT22;12319;49.204;8.116;2023-09-08T12:06:27;30.60;51.50
24164;DHT22;12319;49.204;8.116;2023-09-08T12:08:55;30.80;51.50
24164;DHT22;12319;49.204;8.116;2023-09-08T12:11:21;31.00;51.80
24164;DHT22;12319;49.204;8.116;2023-09-08T12:13:46;31.10;51.20
24164;DHT22;12319;49.204;8.116;2023-09-08T12:16:21;31.40;51.10
24164;DHT22;12319;49.204;8.116;2023-09-08T12:18:50;31.60;51.00
24164;DHT22;12319;49.204;8.116;2023-09-08T12:21:16;31.80;50.60
24164;DHT22;12319;49.204;8.116;2023-09-08T12:23:51;31.90;50.20
24164;DHT22;12319;49.204;8.116;2023-09-08T12:26:18;31.90;50.00
24164;DHT22;12319;49.204;8.116;2023-09-08T12:28:44;32.10;50.00
24164;DHT22;12319;49.204;8.116;2023-09-08T12:31:10;32.30;50.00
24164;DHT22;12319;49.204;8.116;2023-09-08T12:33:37;32.40;49.60
24164;DHT22;12319;49.204;8.116;2023-09-08T12:38:41;32.80;48.80
24164;DHT22;12319;49.204;8.116;2023-09-08T12:41:11;32.90;48.40
24164;DHT22;12319;49.204;8.116;2023-09-08T12:43:37;33.00;48.80
24164;DHT22;12319;49.204;8.116;2023-09-08T12:46:02;33.10;48.60
24164;DHT22;12319;49.204;8.116;2023-09-08T12:48:28;33.30;48.60
24164;DHT22;12319;49.204;8.116;2023-09-08T12:50:54;33.40;48.40
24164;DHT22;12319;49.204;8.116;2023-09-08T12:53:20;33.40;47.70
24164;DHT22;12319;49.204;8.116;2023-09-08T12:55:46;33.60;47.60
24164;DHT22;12319;49.204;8.116;2023-09-08T12:58:11;33.70;47.60
24164;DHT22;12319;49.204;8.116;2023-09-08T13:00:37;33.80;47.50
24164;DHT22;12319;49.204;8.116;2023-09-08T13:03:03;33.80;47.60
24164;DHT22;12319;49.204;8.116;2023-09-08T13:05:29;34.00;47.50
24164;DHT22;12319;49.204;8.116;2023-09-08T13:07:54;34.10;47.40
24164;DHT22;12319;49.204;8.116;2023-09-08T13:10:20;34.30;47.20
24164;DHT22;12319;49.204;8.116;2023-09-08T13:12:45;34.30;47.40
24164;DHT22;12319;49.204;8.116;2023-09-08T13:15:11;34.30;47.10
24164;DHT22;12319;49.204;8.116;2023-09-08T13:17:37;34.40;47.20
24164;DHT22;12319;49.204;8.116;2023-09-08T13:20:03;34.50;46.70
24164;DHT22;12319;49.204;8.116;2023-09-08T13:22:28;34.60;46.70
24164;DHT22;12319;49.204;8.116;2023-09-08T13:24:54;34.60;46.20
24164;DHT22;12319;49.204;8.116;2023-09-08T13:27:20;34.70;46.50
24164;DHT22;12319;49.204;8.116;2023-09-08T13:29:46;34.70;46.60
24164;DHT22;12319;49.204;8.116;2023-09-08T13:32:11;34.80;46.40
24164;DHT22;12319;49.204;8.116;2023-09-08T13:34:37;34.90;46.40
24164;DHT22;12319;49.204;8.116;2023-09-08T13:37:04;35.00;46.60
24164;DHT22;12319;49.204;8.116;2023-09-08T13:39:30;35.00;46.50
24164;DHT22;12319;49.204;8.116;2023-09-08T13:41:59;35.10;46.60
24164;DHT22;12319;49.204;8.116;2023-09-08T13:44:25;35.20;46.50
24164;DHT22;12319;49.204;8.116;2023-09-08T13:46:51;35.30;46.50
24164;DHT22;12319;49.204;8.116;2023-09-08T13:49:17;35.30;46.20
24164;DHT22;12319;49.204;8.116;2023-09-08T13:51:43;35.20;46.20
24164;DHT22;12319;49.204;8.116;2023-09-08T13:54:11;35.30;46.30
24164;DHT22;12319;49.204;8.116;2023-09-08T13:56:39;35.20;46.20
24164;DHT22;12319;49.204;8.116;2023-09-08T13:59:05;35.20;46.00
24164;DHT22;12319;49.204;8.116;2023-09-08T14:01:33;35.10;46.10
24164;DHT22;12319;49.204;8.116;2023-09-08T14:03:58;35.10;46.40
24164;DHT22;12319;49.204;8.116;2023-09-08T14:06:26;35.00;46.30
24164;DHT22;12319;49.204;8.116;2023-09-08T14:08:52;34.80;46.30
24164;DHT22;12319;49.204;8.116;2023-09-08T14:11:18;34.70;46.60
24164;DHT22;12319;49.204;8.116;2023-09-08T14:13:44;34.60;46.60
24164;DHT22;12319;49.204;8.116;2023-09-08T14:16:11;34.40;46.80
24164;DHT22;12319;49.204;8.116;2023-09-08T14:18:36;34.20;46.90
24164;DHT22;12319;49.204;8.116;2023-09-08T14:21:02;33.90;47.00
24164;DHT22;12319;49.204;8.116;2023-09-08T14:23:28;33.60;47.30
24164;DHT22;12319;49.204;8.116;2023-09-08T14:25:54;33.30;47.60
24164;DHT22;12319;49.204;8.116;2023-09-08T14:28:20;33.00;47.90
24164;DHT22;12319;49.204;8.116;2023-09-08T14:30:46;32.70;48.20
24164;DHT22;12319;49.204;8.116;2023-09-08T14:33:12;32.50;48.50
24164;DHT22;12319;49.204;8.116;2023-09-08T14:35:42;32.20;48.70
24164;DHT22;12319;49.204;8.116;2023-09-08T14:38:08;31.90;49.20
24164;DHT22;12319;49.204;8.116;2023-09-08T14:40:34;31.70;49.40
24164;DHT22;12319;49.204;8.116;2023-09-08T14:43:00;31.50;49.60
24164;DHT22;12319;49.204;8.116;2023-09-08T14:45:25;31.40;49.90
24164;DHT22;12319;49.204;8.116;2023-09-08T14:47:52;31.30;50.00
24164;DHT22;12319;49.204;8.116;2023-09-08T14:50:18;31.20;50.30
24164;DHT22;12319;49.204;8.116;2023-09-08T14:52:44;31.20;50.50
24164;DHT22;12319;49.204;8.116;2023-09-08T14:55:10;31.10;50.50
24164;DHT22;12319;49.204;8.116;2023-09-08T14:57:35;31.00;50.50
24164;DHT22;12319;49.204;8.116;2023-09-08T15:00:05;30.90;50.70
24164;DHT22;12319;49.204;8.116;2023-09-08T15:02:32;30.90;50.90
24164;DHT22;12319;49.204;8.116;2023-09-08T15:04:57;30.90;50.90
24164;DHT22;12319;49.204;8.116;2023-09-08T15:07:23;30.80;51.00
24164;DHT22;12319;49.204;8.116;2023-09-08T15:09:48;30.70;51.00
24164;DHT22;12319;49.204;8.116;2023-09-08T15:12:15;30.80;51.10
24164;DHT22;12319;49.204;8.116;2023-09-08T15:14:41;30.70;51.10
24164;DHT22;12319;49.204;8.116;2023-09-08T15:17:10;30.60;51.20
24164;DHT22;12319;49.204;8.116;2023-09-08T15:19:38;30.50;51.40
24164;DHT22;12319;49.204;8.116;2023-09-08T15:22:04;30.50;51.40
24164;DHT22;12319;49.204;8.116;2023-09-08T15:24:30;30.40;51.40
24164;DHT22;12319;49.204;8.116;2023-09-08T15:26:55;30.40;51.60
24164;DHT22;12319;49.204;8.116;2023-09-08T15:29:22;30.30;51.70
24164;DHT22;12319;49.204;8.116;2023-09-08T15:31:48;30.30;51.80
24164;DHT22;12319;49.204;8.116;2023-09-08T15:34:14;30.30;51.80
24164;DHT22;12319;49.204;8.116;2023-09-08T15:36:39;30.10;51.90